sensor_id;sensor_type;location;lat;lon;timestamp;P1;durP1;ratioP1;P2;durP2;ratioP2
19967;SDS011;10145;49.152;9.282;2022-08-19T04:02:38;25.60;;;19.92;;
19967;SDS011;10145;49.152;9.282;2022-08-19T04:05:03;25.40;;;19.73;;
19967;SDS011;10145;49.152;9.282;2022-08-19T04:07:30;24.80;;;19.67;;
19967;SDS011;10145;49.152;9.282;2022-08-19T04:09:55;26.05;;;19.92;;
19967;SDS011;10145;49.152;9.282;2022-08-19T04:12:21;25.35;;;19.80;;
19967;SDS011;10145;49.152;9.282;2022-08-19T04:14:46;26.02;;;19.65;;
19967;SDS011;10145;49.152;9.282;2022-08-19T04:17:12;24.05;;;20.05;;
19967;SDS011;10145;49.152;9.282;2022-08-19T04:19:39;27.55;;;20.13;;
19967;SDS011;10145;49.152;9.282;2022-08-19T04:22:04;27.00;;;20.55;;
19967;SDS011;10145;49.152;9.282;2022-08-19T04:24:31;27.25;;;20.63;;
19967;SDS011;10145;49.152;9.282;2022-08-19T04:26:59;25.52;;;20.10;;
19967;SDS011;10145;49.152;9.282;2022-08-19T04:29:26;24.85;;;19.98;;
19967;SDS011;10145;49.152;9.282;2022-08-19T04:31:52;26.50;;;21.00;;
19967;SDS011;10145;49.152;9.282;2022-08-19T04:34:20;23.45;;;20.02;;
19967;SDS011;10145;49.152;9.282;2022-08-19T04:36:47;28.83;;;20.70;;
19967;SDS011;10145;49.152;9.282;2022-08-19T04:39:17;25.42;;;20.17;;
19967;SDS011;10145;49.152;9.282;2022-08-19T04:41:44;25.80;;;19.52;;
19967;SDS011;10145;49.152;9.282;2022-08-19T04:44:30;29.35;;;20.20;;
19967;SDS011;10145;49.152;9.282;2022-08-19T04:46:56;26.20;;;19.27;;
19967;SDS011;10145;49.152;9.282;2022-08-19T04:49:22;26.05;;;20.40;;
19967;SDS011;10145;49.152;9.282;2022-08-19T04:51:49;26.70;;;19.95;;
19967;SDS011;10145;49.152;9.282;2022-08-19T04:54:17;30.17;;;20.58;;
19967;SDS011;10145;49.152;9.282;2022-08-19T04:56:45;25.92;;;20.15;;
19967;SDS011;10145;49.152;9.282;2022-08-19T04:59:10;25.88;;;21.38;;
19967;SDS011;10145;49.152;9.282;2022-08-19T05:01:36;25.90;;;19.67;;
19967;SDS011;10145;49.152;9.282;2022-08-19T05:04:03;26.75;;;21.15;;
19967;SDS011;10145;49.152;9.282;2022-08-19T05:06:31;24.02;;;20.02;;
19967;SDS011;10145;49.152;9.282;2022-08-19T05:08:59;27.60;;;21.20;;
19967;SDS011;10145;49.152;9.282;2022-08-19T05:11:27;27.33;;;21.02;;
19967;SDS011;10145;49.152;9.282;2022-08-19T05:13:55;27.45;;;20.35;;
19967;SDS011;10145;49.152;9.282;2022-08-19T05:16:22;27.05;;;20.00;;
19967;SDS011;10145;49.152;9.282;2022-08-19T05:18:49;24.85;;;19.88;;
19967;SDS011;10145;49.152;9.282;2022-08-19T05:21:34;26.95;;;19.70;;
19967;SDS011;10145;49.152;9.282;2022-08-19T05:24:19;24.70;;;19.80;;
19967;SDS011;10145;49.152;9.282;2022-08-19T05:26:46;26.83;;;19.10;;
19967;SDS011;10145;49.152;9.282;2022-08-19T05:29:14;27.77;;;20.50;;
19967;SDS011;10145;49.152;9.282;2022-08-19T05:31:41;26.83;;;19.83;;
19967;SDS011;10145;49.152;9.282;2022-08-19T05:34:07;24.65;;;19.25;;
19967;SDS011;10145;49.152;9.282;2022-08-19T05:36:38;28.98;;;20.77;;
19967;SDS011;10145;49.152;9.282;2022-08-19T05:39:06;24.75;;;18.85;;
19967;SDS011;10145;49.152;9.282;2022-08-19T05:41:33;25.65;;;18.83;;
19967;SDS011;10145;49.152;9.282;2022-08-19T05:44:01;26.67;;;19.63;;
19967;SDS011;10145;49.152;9.282;2022-08-19T05:46:31;27.15;;;19.27;;
19967;SDS011;10145;49.152;9.282;2022-08-19T05:48:57;26.95;;;18.35;;
19967;SDS011;10145;49.152;9.282;2022-08-19T05:51:23;26.27;;;19.00;;
19967;SDS011;10145;49.152;9.282;2022-08-19T05:53:49;22.23;;;17.25;;
19967;SDS011;10145;49.152;9.282;2022-08-19T05:56:16;23.65;;;18.35;;
19967;SDS011;10145;49.152;9.282;2022-08-19T05:58:43;23.23;;;18.58;;
19967;SDS011;10145;49.152;9.282;2022-08-19T06:01:15;22.20;;;17.77;;
19967;SDS011;10145;49.152;9.282;2022-08-19T06:03:43;22.77;;;18.13;;
19967;SDS011;10145;49.152;9.282;2022-08-19T06:06:11;23.05;;;17.90;;
19967;SDS011;10145;49.152;9.282;2022-08-19T06:08:40;24.30;;;18.65;;
19967;SDS011;10145;49.152;9.282;2022-08-19T06:13:49;23.20;;;17.95;;
19967;SDS011;10145;49.152;9.282;2022-08-19T06:16:21;26.05;;;18.25;;
19967;SDS011;10145;49.152;9.282;2022-08-19T06:18:54;22.95;;;18.25;;
19967;SDS011;10145;49.152;9.282;2022-08-19T06:21:22;24.80;;;18.50;;
19967;SDS011;10145;49.152;9.282;2022-08-19T06:23:50;27.90;;;19.13;;
19967;SDS011;10145;49.152;9.282;2022-08-19T06:26:17;24.95;;;18.52;;
19967;SDS011;10145;49.152;9.282;2022-08-19T06:28:44;24.30;;;19.08;;
19967;SDS011;10145;49.152;9.282;2022-08-19T06:31:14;25.85;;;18.20;;
19967;SDS011;10145;49.152;9.282;2022-08-19T06:33:41;27.55;;;20.67;;
19967;SDS011;10145;49.152;9.282;2022-08-19T06:36:15;24.30;;;19.40;;
19967;SDS011;10145;49.152;9.282;2022-08-19T06:38:41;26.38;;;18.58;;
19967;SDS011;10145;49.152;9.282;2022-08-19T06:41:10;26.83;;;18.63;;
19967;SDS011;10145;49.152;9.282;2022-08-19T06:43:36;30.88;;;19.70;;
19967;SDS011;10145;49.152;9.282;2022-08-19T06:46:02;23.65;;;17.83;;
19967;SDS011;10145;49.152;9.282;2022-08-19T06:48:28;24.30;;;18.80;;
19967;SDS011;10145;49.152;9.282;2022-08-19T06:50:54;25.80;;;18.42;;
19967;SDS011;10145;49.152;9.282;2022-08-19T06:53:20;25.55;;;19.23;;
19967;SDS011;10145;49.152;9.282;2022-08-19T06:55:46;25.15;;;19.00;;
19967;SDS011;10145;49.152;9.282;2022-08-19T06:58:12;29.23;;;18.60;;
19967;SDS011;10145;49.152;9.282;2022-08-19T07:00:37;24.92;;;18.20;;
19967;SDS011;10145;49.152;9.282;2022-08-19T07:03:03;24.67;;;18.05;;
19967;SDS011;10145;49.152;9.282;2022-08-19T07:05:28;24.70;;;18.10;;
19967;SDS011;10145;49.152;9.282;2022-08-19T07:07:54;25.45;;;17.63;;
19967;SDS011;10145;49.152;9.282;2022-08-19T07:10:21;22.38;;;17.95;;
19967;SDS011;10145;49.152;9.282;2022-08-19T07:12:46;20.08;;;15.90;;
19967;SDS011;10145;49.152;9.282;2022-08-19T07:15:13;20.77;;;16.40;;
19967;SDS011;10145;49.152;9.282;2022-08-19T07:17:40;23.05;;;15.95;;
19967;SDS011;10145;49.152;9.282;2022-08-19T07:20:08;19.02;;;15.20;;
19967;SDS011;10145;49.152;9.282;2022-08-19T07:22:34;19.33;;;14.20;;
19967;SDS011;10145;49.152;9.282;2022-08-19T07:25:01;17.73;;;13.90;;
19967;SDS011;10145;49.152;9.282;2022-08-19T07:27:28;18.30;;;13.55;;
19967;SDS011;10145;49.152;9.282;2022-08-19T07:29:54;19.80;;;13.55;;
19967;SDS011;10145;49.152;9.282;2022-08-19T07:32:20;18.83;;;13.73;;
19967;SDS011;10145;49.152;9.282;2022-08-19T07:34:45;16.48;;;13.60;;
19967;SDS011;10145;49.152;9.282;2022-08-19T07:37:11;16.75;;;13.00;;
19967;SDS011;10145;49.152;9.282;2022-08-19T07:39:37;18.13;;;12.80;;
19967;SDS011;10145;49.152;9.282;2022-08-19T07:42:05;17.80;;;13.02;;
19967;SDS011;10145;49.152;9.282;2022-08-19T07:44:32;16.95;;;13.05;;
19967;SDS011;10145;49.152;9.282;2022-08-19T07:47:01;17.33;;;12.75;;
19967;SDS011;10145;49.152;9.282;2022-08-19T07:49:27;21.33;;;13.45;;
19967;SDS011;10145;49.152;9.282;2022-08-19T07:51:55;16.13;;;12.98;;
19967;SDS011;10145;49.152;9.282;2022-08-19T07:54:24;16.73;;;12.63;;
19967;SDS011;10145;49.152;9.282;2022-08-19T07:56:52;16.60;;;12.35;;
19967;SDS011;10145;49.152;9.282;2022-08-19T07:59:19;16.80;;;13.32;;
19967;SDS011;10145;49.152;9.282;2022-08-19T08:01:45;15.30;;;13.10;;
19967;SDS011;10145;49.152;9.282;2022-08-19T08:04:12;16.67;;;12.98;;
19967;SDS011;10145;49.152;9.282;2022-08-19T08:06:57;18.73;;;12.98;;
19967;SDS011;10145;49.152;9.282;2022-08-19T08:09:42;16.48;;;12.60;;
19967;SDS011;10145;49.152;9.282;2022-08-19T08:12:13;19.38;;;14.23;;
19967;SDS011;10145;49.152;9.282;2022-08-19T08:14:42;17.98;;;12.68;;
19967;SDS011;10145;49.152;9.282;2022-08-19T08:17:17;17.35;;;13.13;;
19967;SDS011;10145;49.152;9.282;2022-08-19T08:19:44;15.02;;;12.90;;
19967;SDS011;10145;49.152;9.282;2022-08-19T08:22:11;17.08;;;12.85;;
19967;SDS011;10145;49.152;9.282;2022-08-19T08:25:13;15.93;;;12.48;;
19967;SDS011;10145;49.152;9.282;2022-08-19T08:27:42;18.63;;;12.55;;
19967;SDS011;10145;49.152;9.282;2022-08-19T08:30:19;18.15;;;12.95;;
19967;SDS011;10145;49.152;9.282;2022-08-19T08:32:47;15.68;;;12.75;;
19967;SDS011;10145;49.152;9.282;2022-08-19T08:35:15;15.77;;;11.32;;
19967;SDS011;10145;49.152;9.282;2022-08-19T08:37:43;15.55;;;13.05;;
19967;SDS011;10145;49.152;9.282;2022-08-19T08:40:16;19.55;;;13.05;;
19967;SDS011;10145;49.152;9.282;2022-08-19T08:45:36;14.20;;;11.52;;
19967;SDS011;10145;49.152;9.282;2022-08-19T08:48:22;16.95;;;12.88;;
19967;SDS011;10145;49.152;9.282;2022-08-19T08:50:52;18.33;;;12.63;;
19967;SDS011;10145;49.152;9.282;2022-08-19T08:53:21;15.38;;;13.25;;
19967;SDS011;10145;49.152;9.282;2022-08-19T08:55:48;17.33;;;12.40;;
19967;SDS011;10145;49.152;9.282;2022-08-19T08:58:16;15.60;;;12.75;;
19967;SDS011;10145;49.152;9.282;2022-08-19T09:00:49;15.50;;;12.63;;
19967;SDS011;10145;49.152;9.282;2022-08-19T09:10:58;14.30;;;12.25;;
19967;SDS011;10145;49.152;9.282;2022-08-19T09:15:58;14.82;;;12.18;;
19967;SDS011;10145;49.152;9.282;2022-08-19T09:18:54;15.05;;;12.32;;
19967;SDS011;10145;49.152;9.282;2022-08-19T09:21:24;14.60;;;13.00;;
19967;SDS011;10145;49.152;9.282;2022-08-19T09:23:51;14.50;;;11.35;;
19967;SDS011;10145;49.152;9.282;2022-08-19T09:26:18;14.00;;;12.55;;
19967;SDS011;10145;49.152;9.282;2022-08-19T09:28:46;14.63;;;12.18;;
19967;SDS011;10145;49.152;9.282;2022-08-19T09:31:14;15.45;;;11.90;;
19967;SDS011;10145;49.152;9.282;2022-08-19T09:33:41;13.32;;;11.60;;
19967;SDS011;10145;49.152;9.282;2022-08-19T09:36:10;13.32;;;11.82;;
19967;SDS011;10145;49.152;9.282;2022-08-19T09:38:38;13.13;;;11.23;;
19967;SDS011;10145;49.152;9.282;2022-08-19T09:41:11;14.60;;;11.52;;
19967;SDS011;10145;49.152;9.282;2022-08-19T09:43:41;12.30;;;11.00;;
19967;SDS011;10145;49.152;9.282;2022-08-19T09:46:09;15.13;;;11.65;;
19967;SDS011;10145;49.152;9.282;2022-08-19T09:48:38;12.48;;;11.10;;
19967;SDS011;10145;49.152;9.282;2022-08-19T09:51:08;15.55;;;12.32;;
19967;SDS011;10145;49.152;9.282;2022-08-19T09:53:38;16.08;;;11.32;;
19967;SDS011;10145;49.152;9.282;2022-08-19T09:56:04;17.02;;;11.55;;
19967;SDS011;10145;49.152;9.282;2022-08-19T09:58:30;16.20;;;10.70;;
19967;SDS011;10145;49.152;9.282;2022-08-19T10:00:57;15.35;;;11.18;;
19967;SDS011;10145;49.152;9.282;2022-08-19T10:03:24;13.52;;;10.60;;
19967;SDS011;10145;49.152;9.282;2022-08-19T10:05:50;12.93;;;10.27;;
19967;SDS011;10145;49.152;9.282;2022-08-19T10:08:17;13.63;;;10.50;;
19967;SDS011;10145;49.152;9.282;2022-08-19T10:10:44;12.18;;;9.85;;
19967;SDS011;10145;49.152;9.282;2022-08-19T10:13:11;13.18;;;9.73;;
19967;SDS011;10145;49.152;9.282;2022-08-19T10:15:37;14.10;;;9.55;;
19967;SDS011;10145;49.152;9.282;2022-08-19T10:18:05;10.25;;;9.25;;
19967;SDS011;10145;49.152;9.282;2022-08-19T10:20:31;12.10;;;8.88;;
19967;SDS011;10145;49.152;9.282;2022-08-19T10:22:57;13.95;;;8.50;;
19967;SDS011;10145;49.152;9.282;2022-08-19T10:25:24;9.68;;;8.27;;
19967;SDS011;10145;49.152;9.282;2022-08-19T10:27:51;8.65;;;7.75;;
19967;SDS011;10145;49.152;9.282;2022-08-19T10:30:17;10.27;;;7.35;;
19967;SDS011;10145;49.152;9.282;2022-08-19T10:32:43;6.88;;;6.18;;
19967;SDS011;10145;49.152;9.282;2022-08-19T10:35:10;8.20;;;6.90;;
19967;SDS011;10145;49.152;9.282;2022-08-19T10:37:37;7.60;;;6.00;;
19967;SDS011;10145;49.152;9.282;2022-08-19T10:40:04;10.43;;;6.50;;
19967;SDS011;10145;49.152;9.282;2022-08-19T10:42:32;7.13;;;5.50;;
19967;SDS011;10145;49.152;9.282;2022-08-19T10:45:01;8.25;;;6.90;;
19967;SDS011;10145;49.152;9.282;2022-08-19T10:47:28;6.65;;;5.57;;
19967;SDS011;10145;49.152;9.282;2022-08-19T10:49:54;7.53;;;5.38;;
19967;SDS011;10145;49.152;9.282;2022-08-19T10:52:39;6.70;;;5.32;;
19967;SDS011;10145;49.152;9.282;2022-08-19T10:55:08;6.47;;;5.50;;
19967;SDS011;10145;49.152;9.282;2022-08-19T10:57:52;5.40;;;4.72;;
19967;SDS011;10145;49.152;9.282;2022-08-19T11:00:18;7.18;;;5.53;;
19967;SDS011;10145;49.152;9.282;2022-08-19T11:02:45;5.85;;;5.28;;
19967;SDS011;10145;49.152;9.282;2022-08-19T11:05:11;6.25;;;5.15;;
19967;SDS011;10145;49.152;9.282;2022-08-19T11:07:38;6.72;;;5.07;;
19967;SDS011;10145;49.152;9.282;2022-08-19T11:10:05;6.57;;;4.97;;
19967;SDS011;10145;49.152;9.282;2022-08-19T11:12:31;6.03;;;5.43;;
19967;SDS011;10145;49.152;9.282;2022-08-19T11:14:58;5.82;;;4.85;;
19967;SDS011;10145;49.152;9.282;2022-08-19T11:17:31;5.10;;;4.55;;
19967;SDS011;10145;49.152;9.282;2022-08-19T11:19:56;6.53;;;4.50;;
19967;SDS011;10145;49.152;9.282;2022-08-19T11:22:22;6.05;;;4.28;;
19967;SDS011;10145;49.152;9.282;2022-08-19T11:24:51;4.93;;;4.32;;
19967;SDS011;10145;49.152;9.282;2022-08-19T11:27:17;5.95;;;4.68;;
19967;SDS011;10145;49.152;9.282;2022-08-19T11:29:42;5.00;;;4.40;;
19967;SDS011;10145;49.152;9.282;2022-08-19T11:32:09;8.30;;;4.57;;
19967;SDS011;10145;49.152;9.282;2022-08-19T11:34:35;6.95;;;4.30;;
19967;SDS011;10145;49.152;9.282;2022-08-19T11:37:04;5.18;;;4.47;;
19967;SDS011;10145;49.152;9.282;2022-08-19T11:39:31;6.70;;;4.20;;
19967;SDS011;10145;49.152;9.282;2022-08-19T11:41:58;8.05;;;4.30;;
19967;SDS011;10145;49.152;9.282;2022-08-19T11:44:51;6.07;;;4.10;;
19967;SDS011;10145;49.152;9.282;2022-08-19T11:47:17;4.65;;;3.83;;
19967;SDS011;10145;49.152;9.282;2022-08-19T11:49:42;4.80;;;3.90;;
19967;SDS011;10145;49.152;9.282;2022-08-19T11:52:08;5.05;;;3.85;;
19967;SDS011;10145;49.152;9.282;2022-08-19T11:54:34;7.10;;;4.18;;
19967;SDS011;10145;49.152;9.282;2022-08-19T11:57:01;4.55;;;3.95;;
19967;SDS011;10145;49.152;9.282;2022-08-19T11:59:28;4.55;;;3.88;;
19967;SDS011;10145;49.152;9.282;2022-08-19T12:01:54;4.70;;;3.92;;
19967;SDS011;10145;49.152;9.282;2022-08-19T12:04:25;5.45;;;3.78;;
19967;SDS011;10145;49.152;9.282;2022-08-19T12:06:54;4.60;;;4.10;;
19967;SDS011;10145;49.152;9.282;2022-08-19T12:09:30;6.03;;;3.92;;
19967;SDS011;10145;49.152;9.282;2022-08-19T12:11:56;4.65;;;3.75;;
19967;SDS011;10145;49.152;9.282;2022-08-19T12:14:22;5.28;;;3.88;;
19967;SDS011;10145;49.152;9.282;2022-08-19T12:16:48;4.47;;;3.92;;
19967;SDS011;10145;49.152;9.282;2022-08-19T12:19:14;4.60;;;4.10;;
19967;SDS011;10145;49.152;9.282;2022-08-19T12:21:40;4.88;;;4.40;;
19967;SDS011;10145;49.152;9.282;2022-08-19T12:24:06;6.28;;;4.30;;
19967;SDS011;10145;49.152;9.282;2022-08-19T12:26:32;5.28;;;4.28;;
19967;SDS011;10145;49.152;9.282;2022-08-19T12:29:03;4.32;;;3.90;;
19967;SDS011;10145;49.152;9.282;2022-08-19T12:31:29;7.18;;;4.10;;
19967;SDS011;10145;49.152;9.282;2022-08-19T12:33:55;4.30;;;3.90;;
19967;SDS011;10145;49.152;9.282;2022-08-19T12:36:21;5.50;;;4.22;;
19967;SDS011;10145;49.152;9.282;2022-08-19T12:38:48;5.35;;;3.80;;
19967;SDS011;10145;49.152;9.282;2022-08-19T12:41:17;6.45;;;4.03;;
19967;SDS011;10145;49.152;9.282;2022-08-19T12:43:43;4.78;;;3.75;;
19967;SDS011;10145;49.152;9.282;2022-08-19T12:46:09;5.18;;;3.53;;
19967;SDS011;10145;49.152;9.282;2022-08-19T12:48:36;4.43;;;3.97;;
19967;SDS011;10145;49.152;9.282;2022-08-19T12:51:08;4.45;;;3.47;;
19967;SDS011;10145;49.152;9.282;2022-08-19T12:53:35;3.78;;;3.40;;
19967;SDS011;10145;49.152;9.282;2022-08-19T12:56:01;4.97;;;3.47;;
19967;SDS011;10145;49.152;9.282;2022-08-19T12:58:27;4.53;;;3.30;;
19967;SDS011;10145;49.152;9.282;2022-08-19T13:00:53;5.25;;;3.53;;
19967;SDS011;10145;49.152;9.282;2022-08-19T13:03:19;5.15;;;3.70;;
19967;SDS011;10145;49.152;9.282;2022-08-19T13:05:47;4.30;;;3.90;;
19967;SDS011;10145;49.152;9.282;2022-08-19T13:08:12;4.68;;;3.60;;
19967;SDS011;10145;49.152;9.282;2022-08-19T13:10:38;6.50;;;4.32;;
19967;SDS011;10145;49.152;9.282;2022-08-19T13:13:04;3.90;;;3.50;;
19967;SDS011;10145;49.152;9.282;2022-08-19T13:15:36;4.57;;;3.80;;
19967;SDS011;10145;49.152;9.282;2022-08-19T13:18:04;4.20;;;3.80;;
19967;SDS011;10145;49.152;9.282;2022-08-19T13:20:30;4.63;;;3.70;;
19967;SDS011;10145;49.152;9.282;2022-08-19T13:22:56;4.20;;;3.80;;
19967;SDS011;10145;49.152;9.282;2022-08-19T13:25:22;4.35;;;3.80;;
19967;SDS011;10145;49.152;9.282;2022-08-19T13:27:48;4.43;;;3.67;;
19967;SDS011;10145;49.152;9.282;2022-08-19T13:30:15;4.95;;;3.90;;
19967;SDS011;10145;49.152;9.282;2022-08-19T13:33:00;4.00;;;3.58;;
19967;SDS011;10145;49.152;9.282;2022-08-19T13:35:36;6.10;;;3.60;;
19967;SDS011;10145;49.152;9.282;2022-08-19T13:38:07;4.20;;;3.72;;
19967;SDS011;10145;49.152;9.282;2022-08-19T13:40:32;3.72;;;3.42;;
19967;SDS011;10145;49.152;9.282;2022-08-19T13:42:58;4.35;;;3.70;;
19967;SDS011;10145;49.152;9.282;2022-08-19T13:45:26;4.32;;;3.92;;
19967;SDS011;10145;49.152;9.282;2022-08-19T13:47:53;4.70;;;3.60;;
19967;SDS011;10145;49.152;9.282;2022-08-19T13:50:23;4.15;;;3.70;;
19967;SDS011;10145;49.152;9.282;2022-08-19T13:52:50;4.07;;;3.20;;
19967;SDS011;10145;49.152;9.282;2022-08-19T13:55:17;4.95;;;3.63;;
19967;SDS011;10145;49.152;9.282;2022-08-19T13:57:43;4.00;;;3.00;;
19967;SDS011;10145;49.152;9.282;2022-08-19T14:00:11;4.18;;;3.33;;
19967;SDS011;10145;49.152;9.282;2022-08-19T14:02:43;4.13;;;3.38;;
19967;SDS011;10145;49.152;9.282;2022-08-19T14:05:11;5.57;;;3.50;;
19967;SDS011;10145;49.152;9.282;2022-08-19T14:07:38;6.68;;;3.90;;
19967;SDS011;10145;49.152;9.282;2022-08-19T14:10:05;4.88;;;3.63;;
19967;SDS011;10145;49.152;9.282;2022-08-19T14:12:32;4.60;;;4.00;;
19967;SDS011;10145;49.152;9.282;2022-08-19T14:14:58;6.65;;;3.80;;
19967;SDS011;10145;49.152;9.282;2022-08-19T14:17:24;4.20;;;3.53;;
19967;SDS011;10145;49.152;9.282;2022-08-19T14:19:50;4.72;;;3.55;;
19967;SDS011;10145;49.152;9.282;2022-08-19T14:22:21;4.97;;;3.97;;
19967;SDS011;10145;49.152;9.282;2022-08-19T14:24:46;5.18;;;3.80;;
19967;SDS011;10145;49.152;9.282;2022-08-19T14:27:12;4.05;;;3.65;;
19967;SDS011;10145;49.152;9.282;2022-08-19T14:29:38;13.07;;;4.97;;
19967;SDS011;10145;49.152;9.282;2022-08-19T14:32:04;11.00;;;6.20;;
19967;SDS011;10145;49.152;9.282;2022-08-19T14:34:29;8.50;;;6.28;;
19967;SDS011;10145;49.152;9.282;2022-08-19T14:36:56;7.53;;;6.60;;
19967;SDS011;10145;49.152;9.282;2022-08-19T14:39:22;10.43;;;7.38;;
19967;SDS011;10145;49.152;9.282;2022-08-19T14:41:48;8.82;;;7.75;;
19967;SDS011;10145;49.152;9.282;2022-08-19T14:44:13;8.30;;;7.47;;
19967;SDS011;10145;49.152;9.282;2022-08-19T14:46:39;8.05;;;6.45;;
19967;SDS011;10145;49.152;9.282;2022-08-19T14:49:05;8.52;;;7.60;;
19967;SDS011;10145;49.152;9.282;2022-08-19T14:51:31;9.10;;;7.57;;
19967;SDS011;10145;49.152;9.282;2022-08-19T14:53:57;8.20;;;7.38;;
19967;SDS011;10145;49.152;9.282;2022-08-19T14:56:24;7.75;;;6.78;;
19967;SDS011;10145;49.152;9.282;2022-08-19T14:58:51;9.38;;;7.20;;
19967;SDS011;10145;49.152;9.282;2022-08-19T15:01:18;11.73;;;8.30;;
19967;SDS011;10145;49.152;9.282;2022-08-19T15:03:45;10.13;;;8.75;;
19967;SDS011;10145;49.152;9.282;2022-08-19T15:06:11;12.52;;;7.93;;
19967;SDS011;10145;49.152;9.282;2022-08-19T15:08:38;13.43;;;9.45;;
19967;SDS011;10145;49.152;9.282;2022-08-19T15:11:09;12.85;;;9.30;;
19967;SDS011;10145;49.152;9.282;2022-08-19T15:13:40;11.00;;;8.35;;
19967;SDS011;10145;49.152;9.282;2022-08-19T15:16:06;11.27;;;9.35;;
19967;SDS011;10145;49.152;9.282;2022-08-19T15:18:32;13.00;;;9.10;;
19967;SDS011;10145;49.152;9.282;2022-08-19T15:20:59;9.87;;;8.63;;
19967;SDS011;10145;49.152;9.282;2022-08-19T15:23:26;13.05;;;9.63;;
19967;SDS011;10145;49.152;9.282;2022-08-19T15:25:52;11.13;;;9.85;;
19967;SDS011;10145;49.152;9.282;2022-08-19T15:28:19;11.05;;;8.93;;
19967;SDS011;10145;49.152;9.282;2022-08-19T15:30:49;8.98;;;8.02;;
19967;SDS011;10145;49.152;9.282;2022-08-19T15:33:15;10.00;;;7.10;;
19967;SDS011;10145;49.152;9.282;2022-08-19T15:35:43;9.27;;;7.88;;
19967;SDS011;10145;49.152;9.282;2022-08-19T15:38:09;8.60;;;6.82;;
19967;SDS011;10145;49.152;9.282;2022-08-19T15:40:37;9.38;;;7.43;;
19967;SDS011;10145;49.152;9.282;2022-08-19T15:43:05;8.38;;;7.45;;
19967;SDS011;10145;49.152;9.282;2022-08-19T15:45:31;8.32;;;6.80;;
19967;SDS011;10145;49.152;9.282;2022-08-19T15:48:00;8.23;;;5.70;;
19967;SDS011;10145;49.152;9.282;2022-08-19T15:50:26;7.28;;;5.97;;
19967;SDS011;10145;49.152;9.282;2022-08-19T15:52:54;6.15;;;5.60;;
19967;SDS011;10145;49.152;9.282;2022-08-19T15:55:25;11.00;;;5.72;;
19967;SDS011;10145;49.152;9.282;2022-08-19T15:57:53;8.07;;;5.88;;
19967;SDS011;10145;49.152;9.282;2022-08-19T16:00:37;7.53;;;6.10;;
19967;SDS011;10145;49.152;9.282;2022-08-19T16:03:41;9.88;;;6.18;;
19967;SDS011;10145;49.152;9.282;2022-08-19T16:06:25;6.35;;;5.60;;
19967;SDS011;10145;49.152;9.282;2022-08-19T16:08:55;5.85;;;5.30;;
19967;SDS011;10145;49.152;9.282;2022-08-19T16:11:23;5.93;;;5.32;;
19967;SDS011;10145;49.152;9.282;2022-08-19T16:13:51;7.63;;;5.90;;
19967;SDS011;10145;49.152;9.282;2022-08-19T16:16:19;8.73;;;6.20;;
19967;SDS011;10145;49.152;9.282;2022-08-19T16:18:46;8.85;;;6.15;;
19967;SDS011;10145;49.152;9.282;2022-08-19T16:21:12;7.45;;;6.28;;
19967;SDS011;10145;49.152;9.282;2022-08-19T16:23:41;6.68;;;5.85;;
19967;SDS011;10145;49.152;9.282;2022-08-19T16:26:09;6.85;;;5.70;;
19967;SDS011;10145;49.152;9.282;2022-08-19T16:28:35;10.70;;;6.85;;
19967;SDS011;10145;49.152;9.282;2022-08-19T16:31:00;8.15;;;7.13;;
19967;SDS011;10145;49.152;9.282;2022-08-19T16:33:26;10.13;;;7.05;;
19967;SDS011;10145;49.152;9.282;2022-08-19T16:35:51;8.70;;;7.80;;
19967;SDS011;10145;49.152;9.282;2022-08-19T16:38:17;9.15;;;7.90;;
19967;SDS011;10145;49.152;9.282;2022-08-19T16:40:43;8.65;;;7.43;;
19967;SDS011;10145;49.152;9.282;2022-08-19T16:43:10;8.13;;;7.32;;
19967;SDS011;10145;49.152;9.282;2022-08-19T16:45:35;10.95;;;7.88;;
19967;SDS011;10145;49.152;9.282;2022-08-19T16:48:01;9.88;;;7.70;;
19967;SDS011;10145;49.152;9.282;2022-08-19T16:50:27;9.00;;;7.90;;
19967;SDS011;10145;49.152;9.282;2022-08-19T16:52:53;10.68;;;7.82;;
19967;SDS011;10145;49.152;9.282;2022-08-19T16:55:21;10.38;;;8.60;;
19967;SDS011;10145;49.152;9.282;2022-08-19T16:57:47;9.82;;;7.80;;
19967;SDS011;10145;49.152;9.282;2022-08-19T17:00:12;11.15;;;8.20;;
19967;SDS011;10145;49.152;9.282;2022-08-19T17:02:38;9.52;;;8.32;;
19967;SDS011;10145;49.152;9.282;2022-08-19T17:05:05;9.85;;;8.10;;
19967;SDS011;10145;49.152;9.282;2022-08-19T17:07:32;11.18;;;9.40;;
19967;SDS011;10145;49.152;9.282;2022-08-19T17:09:57;10.50;;;8.85;;
19967;SDS011;10145;49.152;9.282;2022-08-19T17:12:24;10.13;;;9.02;;
19967;SDS011;10145;49.152;9.282;2022-08-19T17:14:50;11.25;;;8.60;;
19967;SDS011;10145;49.152;9.282;2022-08-19T17:17:16;12.52;;;9.32;;
19967;SDS011;10145;49.152;9.282;2022-08-19T17:19:44;13.02;;;10.05;;
19967;SDS011;10145;49.152;9.282;2022-08-19T17:22:11;12.15;;;9.30;;
19967;SDS011;10145;49.152;9.282;2022-08-19T17:24:37;11.65;;;9.98;;
19967;SDS011;10145;49.152;9.282;2022-08-19T17:27:03;14.20;;;10.15;;
19967;SDS011;10145;49.152;9.282;2022-08-19T17:29:30;11.85;;;10.20;;
19967;SDS011;10145;49.152;9.282;2022-08-19T17:31:56;13.82;;;10.10;;
19967;SDS011;10145;49.152;9.282;2022-08-19T17:34:22;12.95;;;11.57;;
19967;SDS011;10145;49.152;9.282;2022-08-19T17:36:47;13.52;;;11.35;;
19967;SDS011;10145;49.152;9.282;2022-08-19T17:39:13;12.00;;;10.70;;
19967;SDS011;10145;49.152;9.282;2022-08-19T17:41:39;13.13;;;11.38;;
19967;SDS011;10145;49.152;9.282;2022-08-19T17:44:04;14.27;;;11.63;;
19967;SDS011;10145;49.152;9.282;2022-08-19T17:46:30;16.10;;;12.35;;
19967;SDS011;10145;49.152;9.282;2022-08-19T17:48:56;15.77;;;12.80;;
19967;SDS011;10145;49.152;9.282;2022-08-19T17:53:57;16.92;;;12.27;;
19967;SDS011;10145;49.152;9.282;2022-08-19T17:56:22;15.25;;;11.88;;
19967;SDS011;10145;49.152;9.282;2022-08-19T17:58:49;13.90;;;11.90;;
19967;SDS011;10145;49.152;9.282;2022-08-19T18:01:16;14.05;;;11.63;;
19967;SDS011;10145;49.152;9.282;2022-08-19T18:03:42;13.23;;;11.07;;
19967;SDS011;10145;49.152;9.282;2022-08-19T18:06:08;11.98;;;10.77;;
19967;SDS011;10145;49.152;9.282;2022-08-19T18:08:34;14.88;;;11.23;;
19967;SDS011;10145;49.152;9.282;2022-08-19T18:11:03;12.32;;;11.02;;
19967;SDS011;10145;49.152;9.282;2022-08-19T18:13:30;14.63;;;10.82;;
19967;SDS011;10145;49.152;9.282;2022-08-19T18:15:56;12.20;;;10.40;;
19967;SDS011;10145;49.152;9.282;2022-08-19T18:18:22;11.35;;;10.00;;
19967;SDS011;10145;49.152;9.282;2022-08-19T18:20:49;13.65;;;10.73;;
19967;SDS011;10145;49.152;9.282;2022-08-19T18:23:16;11.75;;;10.40;;
19967;SDS011;10145;49.152;9.282;2022-08-19T18:25:42;13.13;;;10.57;;
19967;SDS011;10145;49.152;9.282;2022-08-19T18:28:07;11.57;;;10.20;;
19967;SDS011;10145;49.152;9.282;2022-08-19T18:30:33;12.05;;;10.68;;
19967;SDS011;10145;49.152;9.282;2022-08-19T18:32:59;12.20;;;10.77;;
19967;SDS011;10145;49.152;9.282;2022-08-19T18:35:27;13.60;;;11.25;;
19967;SDS011;10145;49.152;9.282;2022-08-19T18:37:55;12.20;;;10.98;;
19967;SDS011;10145;49.152;9.282;2022-08-19T18:40:23;13.38;;;10.68;;
19967;SDS011;10145;49.152;9.282;2022-08-19T18:43:08;12.70;;;10.90;;
19967;SDS011;10145;49.152;9.282;2022-08-19T18:45:43;13.05;;;11.35;;
19967;SDS011;10145;49.152;9.282;2022-08-19T18:48:27;15.32;;;12.10;;
19967;SDS011;10145;49.152;9.282;2022-08-19T18:51:12;12.73;;;11.48;;
19967;SDS011;10145;49.152;9.282;2022-08-19T18:53:41;14.98;;;12.20;;
19967;SDS011;10145;49.152;9.282;2022-08-19T18:56:08;15.02;;;12.05;;
19967;SDS011;10145;49.152;9.282;2022-08-19T18:58:39;15.15;;;12.57;;